sensor_id;sensor_type;location;lat;lon;timestamp;P1;durP1;ratioP1;P2;durP2;ratioP2
70535;SDS011;58089;48.752;11.338;2022-10-31T00:01:12;18.05;;;5.90;;
70535;SDS011;58089;48.752;11.338;2022-10-31T00:03:38;10.05;;;4.72;;
70535;SDS011;58089;48.752;11.338;2022-10-31T00:06:04;11.57;;;4.10;;
70535;SDS011;58089;48.752;11.338;2022-10-31T00:08:29;9.30;;;4.10;;
70535;SDS011;58089;48.752;11.338;2022-10-31T00:10:54;14.07;;;4.70;;
70535;SDS011;58089;48.752;11.338;2022-10-31T00:13:19;8.00;;;4.10;;
70535;SDS011;58089;48.752;11.338;2022-10-31T00:15:45;10.70;;;4.30;;
70535;SDS011;58089;48.752;11.338;2022-10-31T00:18:10;11.60;;;4.47;;
70535;SDS011;58089;48.752;11.338;2022-10-31T00:20:36;13.35;;;5.18;;
70535;SDS011;58089;48.752;11.338;2022-10-31T00:23:02;13.93;;;6.50;;
70535;SDS011;58089;48.752;11.338;2022-10-31T00:25:28;15.93;;;5.68;;
70535;SDS011;58089;48.752;11.338;2022-10-31T00:27:57;49.60;;;7.03;;
70535;SDS011;58089;48.752;11.338;2022-10-31T00:30:22;18.07;;;7.27;;
70535;SDS011;58089;48.752;11.338;2022-10-31T00:32:47;24.37;;;6.80;;
70535;SDS011;58089;48.752;11.338;2022-10-31T00:35:13;45.80;;;8.47;;
70535;SDS011;58089;48.752;11.338;2022-10-31T00:37:38;34.40;;;7.57;;
70535;SDS011;58089;48.752;11.338;2022-10-31T00:40:03;22.07;;;6.73;;
70535;SDS011;58089;48.752;11.338;2022-10-31T00:42:29;38.63;;;7.47;;
70535;SDS011;58089;48.752;11.338;2022-10-31T00:44:54;39.47;;;7.17;;
70535;SDS011;58089;48.752;11.338;2022-10-31T00:47:19;21.87;;;6.23;;
70535;SDS011;58089;48.752;11.338;2022-10-31T00:49:45;16.37;;;7.07;;
70535;SDS011;58089;48.752;11.338;2022-10-31T00:52:10;26.13;;;7.03;;
70535;SDS011;58089;48.752;11.338;2022-10-31T00:54:35;16.70;;;6.57;;
70535;SDS011;58089;48.752;11.338;2022-10-31T00:57:00;14.27;;;6.10;;
70535;SDS011;58089;48.752;11.338;2022-10-31T00:59:26;17.97;;;6.67;;
70535;SDS011;58089;48.752;11.338;2022-10-31T01:01:51;13.30;;;6.27;;
70535;SDS011;58089;48.752;11.338;2022-10-31T01:04:16;29.67;;;6.77;;
70535;SDS011;58089;48.752;11.338;2022-10-31T01:06:41;18.70;;;6.10;;
70535;SDS011;58089;48.752;11.338;2022-10-31T01:09:07;21.90;;;5.70;;
70535;SDS011;58089;48.752;11.338;2022-10-31T01:11:32;18.87;;;6.23;;
70535;SDS011;58089;48.752;11.338;2022-10-31T01:13:58;20.65;;;5.35;;
70535;SDS011;58089;48.752;11.338;2022-10-31T01:16:24;31.27;;;6.37;;
70535;SDS011;58089;48.752;11.338;2022-10-31T01:18:50;32.00;;;6.50;;
70535;SDS011;58089;48.752;11.338;2022-10-31T01:21:17;45.63;;;5.97;;
70535;SDS011;58089;48.752;11.338;2022-10-31T01:23:46;33.60;;;6.22;;
70535;SDS011;58089;48.752;11.338;2022-10-31T01:26:16;25.53;;;6.33;;
70535;SDS011;58089;48.752;11.338;2022-10-31T01:28:44;33.15;;;6.72;;
70535;SDS011;58089;48.752;11.338;2022-10-31T01:31:11;36.28;;;7.35;;
70535;SDS011;58089;48.752;11.338;2022-10-31T01:33:36;22.23;;;6.70;;
70535;SDS011;58089;48.752;11.338;2022-10-31T01:36:10;14.93;;;6.67;;
70535;SDS011;58089;48.752;11.338;2022-10-31T01:38:43;19.60;;;6.90;;
70535;SDS011;58089;48.752;11.338;2022-10-31T01:41:09;14.23;;;5.30;;
70535;SDS011;58089;48.752;11.338;2022-10-31T01:46:49;47.35;;;7.80;;
70535;SDS011;58089;48.752;11.338;2022-10-31T01:54:58;17.88;;;6.82;;
70535;SDS011;58089;48.752;11.338;2022-10-31T01:57:26;29.43;;;6.20;;
70535;SDS011;58089;48.752;11.338;2022-10-31T01:59:53;19.83;;;5.88;;
70535;SDS011;58089;48.752;11.338;2022-10-31T02:02:20;26.90;;;6.55;;
70535;SDS011;58089;48.752;11.338;2022-10-31T02:04:46;21.33;;;6.20;;
70535;SDS011;58089;48.752;11.338;2022-10-31T02:07:14;15.50;;;6.10;;
70535;SDS011;58089;48.752;11.338;2022-10-31T02:09:41;14.70;;;6.55;;
70535;SDS011;58089;48.752;11.338;2022-10-31T02:12:08;24.20;;;6.35;;
70535;SDS011;58089;48.752;11.338;2022-10-31T02:14:34;22.02;;;6.15;;
70535;SDS011;58089;48.752;11.338;2022-10-31T02:17:00;18.83;;;5.97;;
70535;SDS011;58089;48.752;11.338;2022-10-31T02:19:34;19.27;;;5.87;;
70535;SDS011;58089;48.752;11.338;2022-10-31T02:22:21;14.73;;;5.63;;
70535;SDS011;58089;48.752;11.338;2022-10-31T02:30:03;39.85;;;6.88;;
70535;SDS011;58089;48.752;11.338;2022-10-31T02:35:10;25.88;;;5.78;;
70535;SDS011;58089;48.752;11.338;2022-10-31T02:37:57;39.00;;;6.90;;
70535;SDS011;58089;48.752;11.338;2022-10-31T02:45:33;38.83;;;7.87;;
70535;SDS011;58089;48.752;11.338;2022-10-31T02:48:04;27.17;;;6.60;;
70535;SDS011;58089;48.752;11.338;2022-10-31T02:50:35;36.58;;;7.38;;
70535;SDS011;58089;48.752;11.338;2022-10-31T02:53:04;33.17;;;7.07;;
70535;SDS011;58089;48.752;11.338;2022-10-31T02:57:56;16.73;;;7.23;;
70535;SDS011;58089;48.752;11.338;2022-10-31T03:00:25;17.38;;;7.38;;
70535;SDS011;58089;48.752;11.338;2022-10-31T03:05:55;13.40;;;6.95;;
70535;SDS011;58089;48.752;11.338;2022-10-31T03:11:13;19.73;;;6.95;;
70535;SDS011;58089;48.752;11.338;2022-10-31T03:18:54;37.95;;;7.05;;
70535;SDS011;58089;48.752;11.338;2022-10-31T03:21:25;41.95;;;7.15;;
70535;SDS011;58089;48.752;11.338;2022-10-31T03:23:53;33.15;;;7.85;;
70535;SDS011;58089;48.752;11.338;2022-10-31T03:26:18;33.90;;;6.80;;
70535;SDS011;58089;48.752;11.338;2022-10-31T03:28:46;54.30;;;7.43;;
70535;SDS011;58089;48.752;11.338;2022-10-31T03:31:16;64.50;;;7.33;;
70535;SDS011;58089;48.752;11.338;2022-10-31T03:33:42;25.65;;;5.65;;
70535;SDS011;58089;48.752;11.338;2022-10-31T03:36:10;57.65;;;7.50;;
70535;SDS011;58089;48.752;11.338;2022-10-31T03:38:37;54.47;;;6.97;;
70535;SDS011;58089;48.752;11.338;2022-10-31T03:41:05;46.05;;;7.20;;
70535;SDS011;58089;48.752;11.338;2022-10-31T03:43:32;88.80;;;8.50;;
70535;SDS011;58089;48.752;11.338;2022-10-31T03:45:58;18.48;;;5.75;;
70535;SDS011;58089;48.752;11.338;2022-10-31T03:48:24;50.60;;;7.40;;
70535;SDS011;58089;48.752;11.338;2022-10-31T03:53:25;30.52;;;6.60;;
70535;SDS011;58089;48.752;11.338;2022-10-31T03:56:07;27.00;;;5.93;;
70535;SDS011;58089;48.752;11.338;2022-10-31T03:58:38;52.67;;;7.10;;
70535;SDS011;58089;48.752;11.338;2022-10-31T04:01:11;86.38;;;7.90;;
70535;SDS011;58089;48.752;11.338;2022-10-31T04:03:40;93.80;;;8.17;;
70535;SDS011;58089;48.752;11.338;2022-10-31T04:06:06;76.85;;;7.63;;
70535;SDS011;58089;48.752;11.338;2022-10-31T04:08:33;33.42;;;6.40;;
70535;SDS011;58089;48.752;11.338;2022-10-31T04:11:03;27.25;;;5.47;;
70535;SDS011;58089;48.752;11.338;2022-10-31T04:13:29;67.70;;;6.70;;
70535;SDS011;58089;48.752;11.338;2022-10-31T04:15:56;93.72;;;7.80;;
70535;SDS011;58089;48.752;11.338;2022-10-31T04:18:22;77.43;;;8.57;;
70535;SDS011;58089;48.752;11.338;2022-10-31T04:20:48;47.47;;;6.90;;
70535;SDS011;58089;48.752;11.338;2022-10-31T04:23:33;64.90;;;6.70;;
70535;SDS011;58089;48.752;11.338;2022-10-31T04:25:59;70.60;;;7.13;;
70535;SDS011;58089;48.752;11.338;2022-10-31T04:28:25;41.88;;;6.25;;
70535;SDS011;58089;48.752;11.338;2022-10-31T04:30:50;27.67;;;5.77;;
70535;SDS011;58089;48.752;11.338;2022-10-31T04:33:15;14.40;;;5.60;;
70535;SDS011;58089;48.752;11.338;2022-10-31T04:35:41;29.37;;;5.53;;
70535;SDS011;58089;48.752;11.338;2022-10-31T04:38:06;55.53;;;6.53;;
70535;SDS011;58089;48.752;11.338;2022-10-31T04:40:31;34.23;;;6.50;;
70535;SDS011;58089;48.752;11.338;2022-10-31T04:42:57;29.48;;;5.55;;
70535;SDS011;58089;48.752;11.338;2022-10-31T04:45:22;14.27;;;5.60;;
70535;SDS011;58089;48.752;11.338;2022-10-31T04:47:47;19.50;;;5.37;;
70535;SDS011;58089;48.752;11.338;2022-10-31T04:50:12;25.17;;;5.30;;
70535;SDS011;58089;48.752;11.338;2022-10-31T04:52:38;34.50;;;5.87;;
70535;SDS011;58089;48.752;11.338;2022-10-31T04:55:07;29.50;;;5.72;;
70535;SDS011;58089;48.752;11.338;2022-10-31T04:57:39;9.85;;;4.68;;
70535;SDS011;58089;48.752;11.338;2022-10-31T05:00:05;35.07;;;6.07;;
70535;SDS011;58089;48.752;11.338;2022-10-31T05:02:31;25.33;;;5.75;;
70535;SDS011;58089;48.752;11.338;2022-10-31T05:04:56;23.13;;;5.87;;
70535;SDS011;58089;48.752;11.338;2022-10-31T05:07:22;31.33;;;6.23;;
70535;SDS011;58089;48.752;11.338;2022-10-31T05:09:47;25.67;;;5.60;;
70535;SDS011;58089;48.752;11.338;2022-10-31T05:12:12;32.33;;;6.43;;
70535;SDS011;58089;48.752;11.338;2022-10-31T05:14:37;16.97;;;5.43;;
70535;SDS011;58089;48.752;11.338;2022-10-31T05:17:03;22.53;;;5.67;;
70535;SDS011;58089;48.752;11.338;2022-10-31T05:19:28;19.37;;;4.93;;
70535;SDS011;58089;48.752;11.338;2022-10-31T05:21:53;28.67;;;5.83;;
70535;SDS011;58089;48.752;11.338;2022-10-31T05:24:18;24.33;;;5.80;;
70535;SDS011;58089;48.752;11.338;2022-10-31T05:26:46;52.53;;;6.53;;
70535;SDS011;58089;48.752;11.338;2022-10-31T05:29:11;44.00;;;6.80;;
70535;SDS011;58089;48.752;11.338;2022-10-31T05:31:37;92.90;;;8.40;;
70535;SDS011;58089;48.752;11.338;2022-10-31T05:34:02;23.17;;;6.37;;
70535;SDS011;58089;48.752;11.338;2022-10-31T05:36:27;27.97;;;6.40;;
70535;SDS011;58089;48.752;11.338;2022-10-31T05:38:53;73.17;;;8.33;;
70535;SDS011;58089;48.752;11.338;2022-10-31T05:41:18;53.23;;;6.67;;
70535;SDS011;58089;48.752;11.338;2022-10-31T05:43:43;122.70;;;11.17;;
70535;SDS011;58089;48.752;11.338;2022-10-31T05:46:10;85.30;;;9.23;;
70535;SDS011;58089;48.752;11.338;2022-10-31T05:48:35;39.37;;;6.90;;
70535;SDS011;58089;48.752;11.338;2022-10-31T05:51:00;160.47;;;10.87;;
70535;SDS011;58089;48.752;11.338;2022-10-31T05:53:25;128.13;;;10.23;;
70535;SDS011;58089;48.752;11.338;2022-10-31T05:55:51;132.27;;;9.93;;
70535;SDS011;58089;48.752;11.338;2022-10-31T05:58:16;86.73;;;8.83;;
70535;SDS011;58089;48.752;11.338;2022-10-31T06:00:41;26.47;;;6.50;;
70535;SDS011;58089;48.752;11.338;2022-10-31T06:03:07;83.33;;;8.47;;
70535;SDS011;58089;48.752;11.338;2022-10-31T06:05:33;116.55;;;8.65;;
70535;SDS011;58089;48.752;11.338;2022-10-31T06:07:58;91.33;;;7.90;;
70535;SDS011;58089;48.752;11.338;2022-10-31T06:10:24;62.23;;;6.70;;
70535;SDS011;58089;48.752;11.338;2022-10-31T06:12:49;71.80;;;8.70;;
70535;SDS011;58089;48.752;11.338;2022-10-31T06:15:15;44.83;;;7.23;;
70535;SDS011;58089;48.752;11.338;2022-10-31T06:17:41;50.37;;;9.37;;
70535;SDS011;58089;48.752;11.338;2022-10-31T06:20:06;42.20;;;11.17;;
70535;SDS011;58089;48.752;11.338;2022-10-31T06:22:32;41.90;;;10.97;;
70535;SDS011;58089;48.752;11.338;2022-10-31T06:24:57;58.83;;;11.43;;
70535;SDS011;58089;48.752;11.338;2022-10-31T06:27:23;62.13;;;9.63;;
70535;SDS011;58089;48.752;11.338;2022-10-31T06:29:49;51.03;;;8.90;;
70535;SDS011;58089;48.752;11.338;2022-10-31T06:32:14;109.43;;;11.27;;
70535;SDS011;58089;48.752;11.338;2022-10-31T06:34:40;48.73;;;7.90;;
70535;SDS011;58089;48.752;11.338;2022-10-31T06:37:06;48.57;;;7.30;;
70535;SDS011;58089;48.752;11.338;2022-10-31T06:39:32;44.95;;;6.78;;
70535;SDS011;58089;48.752;11.338;2022-10-31T06:41:57;33.67;;;6.33;;
70535;SDS011;58089;48.752;11.338;2022-10-31T06:44:22;45.00;;;6.33;;
70535;SDS011;58089;48.752;11.338;2022-10-31T06:46:48;43.23;;;6.77;;
70535;SDS011;58089;48.752;11.338;2022-10-31T06:49:13;50.63;;;7.17;;
70535;SDS011;58089;48.752;11.338;2022-10-31T06:51:38;45.47;;;7.03;;
70535;SDS011;58089;48.752;11.338;2022-10-31T06:54:04;39.27;;;6.63;;
70535;SDS011;58089;48.752;11.338;2022-10-31T06:56:29;43.20;;;6.93;;
70535;SDS011;58089;48.752;11.338;2022-10-31T06:58:54;43.30;;;6.60;;
70535;SDS011;58089;48.752;11.338;2022-10-31T07:01:20;78.65;;;7.82;;
70535;SDS011;58089;48.752;11.338;2022-10-31T07:03:45;31.90;;;7.20;;
70535;SDS011;58089;48.752;11.338;2022-10-31T07:06:10;32.87;;;7.30;;
70535;SDS011;58089;48.752;11.338;2022-10-31T07:08:35;38.20;;;7.33;;
70535;SDS011;58089;48.752;11.338;2022-10-31T07:11:01;30.20;;;7.80;;
70535;SDS011;58089;48.752;11.338;2022-10-31T07:13:26;34.60;;;8.10;;
70535;SDS011;58089;48.752;11.338;2022-10-31T07:15:58;45.47;;;6.80;;
70535;SDS011;58089;48.752;11.338;2022-10-31T07:18:25;50.05;;;8.20;;
70535;SDS011;58089;48.752;11.338;2022-10-31T07:20:51;38.63;;;7.97;;
70535;SDS011;58089;48.752;11.338;2022-10-31T07:23:17;33.80;;;8.48;;
70535;SDS011;58089;48.752;11.338;2022-10-31T07:25:42;58.63;;;8.27;;
70535;SDS011;58089;48.752;11.338;2022-10-31T07:28:08;41.97;;;10.23;;
70535;SDS011;58089;48.752;11.338;2022-10-31T07:30:33;44.15;;;9.70;;
70535;SDS011;58089;48.752;11.338;2022-10-31T07:32:59;39.50;;;8.83;;
70535;SDS011;58089;48.752;11.338;2022-10-31T07:35:25;51.07;;;9.27;;
70535;SDS011;58089;48.752;11.338;2022-10-31T07:37:51;51.13;;;9.82;;
70535;SDS011;58089;48.752;11.338;2022-10-31T07:40:17;64.97;;;13.03;;
70535;SDS011;58089;48.752;11.338;2022-10-31T07:42:43;73.63;;;14.20;;
70535;SDS011;58089;48.752;11.338;2022-10-31T07:45:11;50.63;;;12.77;;
70535;SDS011;58089;48.752;11.338;2022-10-31T07:47:44;47.17;;;12.13;;
70535;SDS011;58089;48.752;11.338;2022-10-31T07:50:12;47.33;;;9.97;;
70535;SDS011;58089;48.752;11.338;2022-10-31T07:52:39;44.83;;;9.65;;
70535;SDS011;58089;48.752;11.338;2022-10-31T07:55:05;35.27;;;9.57;;
70535;SDS011;58089;48.752;11.338;2022-10-31T07:57:31;41.73;;;11.20;;
70535;SDS011;58089;48.752;11.338;2022-10-31T07:59:56;52.25;;;9.45;;
70535;SDS011;58089;48.752;11.338;2022-10-31T08:02:21;51.50;;;9.83;;
70535;SDS011;58089;48.752;11.338;2022-10-31T08:04:47;44.23;;;10.00;;
70535;SDS011;58089;48.752;11.338;2022-10-31T08:07:12;35.27;;;9.00;;
70535;SDS011;58089;48.752;11.338;2022-10-31T08:09:38;25.23;;;9.20;;
70535;SDS011;58089;48.752;11.338;2022-10-31T08:12:03;37.33;;;9.03;;
70535;SDS011;58089;48.752;11.338;2022-10-31T08:14:29;41.97;;;9.67;;
70535;SDS011;58089;48.752;11.338;2022-10-31T08:16:54;47.37;;;9.57;;
70535;SDS011;58089;48.752;11.338;2022-10-31T08:19:19;53.73;;;9.43;;
70535;SDS011;58089;48.752;11.338;2022-10-31T08:21:45;29.97;;;9.93;;
70535;SDS011;58089;48.752;11.338;2022-10-31T08:24:10;32.83;;;9.17;;
70535;SDS011;58089;48.752;11.338;2022-10-31T08:26:35;28.00;;;8.70;;
70535;SDS011;58089;48.752;11.338;2022-10-31T08:29:00;67.50;;;9.23;;
70535;SDS011;58089;48.752;11.338;2022-10-31T08:31:26;47.83;;;9.50;;
70535;SDS011;58089;48.752;11.338;2022-10-31T08:33:52;25.60;;;8.68;;
70535;SDS011;58089;48.752;11.338;2022-10-31T08:36:18;28.33;;;9.23;;
70535;SDS011;58089;48.752;11.338;2022-10-31T08:38:44;18.50;;;8.45;;
70535;SDS011;58089;48.752;11.338;2022-10-31T08:41:09;44.17;;;10.67;;
70535;SDS011;58089;48.752;11.338;2022-10-31T08:43:34;46.87;;;10.00;;
70535;SDS011;58089;48.752;11.338;2022-10-31T08:46:00;50.27;;;9.77;;
70535;SDS011;58089;48.752;11.338;2022-10-31T08:48:25;52.97;;;11.30;;
70535;SDS011;58089;48.752;11.338;2022-10-31T08:50:50;21.57;;;11.20;;
70535;SDS011;58089;48.752;11.338;2022-10-31T08:53:16;26.43;;;9.67;;
70535;SDS011;58089;48.752;11.338;2022-10-31T08:55:44;45.47;;;9.50;;
70535;SDS011;58089;48.752;11.338;2022-10-31T08:58:11;22.17;;;9.47;;
70535;SDS011;58089;48.752;11.338;2022-10-31T09:00:37;44.42;;;10.90;;
70535;SDS011;58089;48.752;11.338;2022-10-31T09:03:04;48.75;;;11.88;;
70535;SDS011;58089;48.752;11.338;2022-10-31T09:05:33;64.37;;;12.03;;
70535;SDS011;58089;48.752;11.338;2022-10-31T09:07:58;54.83;;;12.13;;
70535;SDS011;58089;48.752;11.338;2022-10-31T09:10:25;40.90;;;12.63;;
70535;SDS011;58089;48.752;11.338;2022-10-31T09:12:54;50.65;;;12.32;;
70535;SDS011;58089;48.752;11.338;2022-10-31T09:15:21;28.55;;;11.48;;
70535;SDS011;58089;48.752;11.338;2022-10-31T09:17:46;63.57;;;12.43;;
70535;SDS011;58089;48.752;11.338;2022-10-31T09:20:12;51.22;;;13.35;;
70535;SDS011;58089;48.752;11.338;2022-10-31T09:22:38;78.03;;;13.53;;
70535;SDS011;58089;48.752;11.338;2022-10-31T09:25:03;70.67;;;14.07;;
70535;SDS011;58089;48.752;11.338;2022-10-31T09:27:28;50.67;;;12.00;;
70535;SDS011;58089;48.752;11.338;2022-10-31T09:29:54;59.23;;;13.23;;
70535;SDS011;58089;48.752;11.338;2022-10-31T09:32:19;50.40;;;14.20;;
70535;SDS011;58089;48.752;11.338;2022-10-31T09:34:44;57.67;;;14.80;;
70535;SDS011;58089;48.752;11.338;2022-10-31T09:37:09;77.63;;;16.07;;
70535;SDS011;58089;48.752;11.338;2022-10-31T09:39:35;63.63;;;15.77;;
70535;SDS011;58089;48.752;11.338;2022-10-31T09:42:22;52.43;;;20.00;;
70535;SDS011;58089;48.752;11.338;2022-10-31T09:44:52;48.35;;;16.35;;
70535;SDS011;58089;48.752;11.338;2022-10-31T09:47:27;50.75;;;17.55;;
70535;SDS011;58089;48.752;11.338;2022-10-31T09:52:47;47.90;;;17.10;;
70535;SDS011;58089;48.752;11.338;2022-10-31T09:55:21;40.38;;;15.90;;
70535;SDS011;58089;48.752;11.338;2022-10-31T09:57:56;46.92;;;17.35;;
70535;SDS011;58089;48.752;11.338;2022-10-31T10:00:23;43.58;;;20.85;;
70535;SDS011;58089;48.752;11.338;2022-10-31T10:05:33;46.97;;;23.40;;
70535;SDS011;58089;48.752;11.338;2022-10-31T10:08:09;64.87;;;25.37;;
70535;SDS011;58089;48.752;11.338;2022-10-31T10:13:33;52.17;;;20.45;;
70535;SDS011;58089;48.752;11.338;2022-10-31T10:32:28;63.37;;;22.03;;
70535;SDS011;58089;48.752;11.338;2022-10-31T10:34:58;54.63;;;21.15;;
70535;SDS011;58089;48.752;11.338;2022-10-31T10:37:41;52.70;;;22.75;;
70535;SDS011;58089;48.752;11.338;2022-10-31T10:40:11;55.87;;;21.10;;
70535;SDS011;58089;48.752;11.338;2022-10-31T10:42:39;44.92;;;20.25;;
70535;SDS011;58089;48.752;11.338;2022-10-31T10:45:23;46.38;;;18.98;;
70535;SDS011;58089;48.752;11.338;2022-10-31T10:48:12;53.15;;;20.85;;
70535;SDS011;58089;48.752;11.338;2022-10-31T10:50:41;51.13;;;19.33;;
70535;SDS011;58089;48.752;11.338;2022-10-31T10:53:16;49.23;;;18.07;;
70535;SDS011;58089;48.752;11.338;2022-10-31T10:55:59;41.30;;;19.67;;
70535;SDS011;58089;48.752;11.338;2022-10-31T10:58:39;40.50;;;18.13;;
70535;SDS011;58089;48.752;11.338;2022-10-31T11:01:12;41.50;;;18.92;;
70535;SDS011;58089;48.752;11.338;2022-10-31T11:03:38;50.97;;;18.58;;
70535;SDS011;58089;48.752;11.338;2022-10-31T11:06:04;62.30;;;19.57;;
70535;SDS011;58089;48.752;11.338;2022-10-31T11:08:33;52.70;;;18.90;;
70535;SDS011;58089;48.752;11.338;2022-10-31T11:11:03;55.30;;;21.60;;
70535;SDS011;58089;48.752;11.338;2022-10-31T11:13:30;75.20;;;23.65;;
70535;SDS011;58089;48.752;11.338;2022-10-31T11:18:25;52.63;;;21.10;;
70535;SDS011;58089;48.752;11.338;2022-10-31T11:20:52;50.33;;;20.80;;
70535;SDS011;58089;48.752;11.338;2022-10-31T11:23:23;45.47;;;20.48;;
70535;SDS011;58089;48.752;11.338;2022-10-31T11:25:59;38.33;;;20.63;;
70535;SDS011;58089;48.752;11.338;2022-10-31T11:28:26;38.28;;;19.23;;
70535;SDS011;58089;48.752;11.338;2022-10-31T11:30:55;49.53;;;22.33;;
70535;SDS011;58089;48.752;11.338;2022-10-31T11:35:56;51.33;;;22.90;;
70535;SDS011;58089;48.752;11.338;2022-10-31T11:38:23;54.95;;;23.73;;
70535;SDS011;58089;48.752;11.338;2022-10-31T11:40:54;63.45;;;26.42;;
70535;SDS011;58089;48.752;11.338;2022-10-31T11:43:22;66.83;;;25.37;;
70535;SDS011;58089;48.752;11.338;2022-10-31T11:45:48;62.92;;;25.10;;
70535;SDS011;58089;48.752;11.338;2022-10-31T11:48:21;57.60;;;24.70;;
70535;SDS011;58089;48.752;11.338;2022-10-31T11:50:57;65.85;;;25.05;;
70535;SDS011;58089;48.752;11.338;2022-10-31T11:53:27;55.50;;;24.75;;
70535;SDS011;58089;48.752;11.338;2022-10-31T11:56:36;58.47;;;27.40;;
70535;SDS011;58089;48.752;11.338;2022-10-31T11:58:56;70.70;;;25.67;;
70535;SDS011;58089;48.752;11.338;2022-10-31T12:01:27;58.88;;;25.30;;
70535;SDS011;58089;48.752;11.338;2022-10-31T12:03:54;63.25;;;26.88;;
70535;SDS011;58089;48.752;11.338;2022-10-31T12:06:36;59.92;;;26.35;;
70535;SDS011;58089;48.752;11.338;2022-10-31T12:09:09;56.72;;;27.73;;
70535;SDS011;58089;48.752;11.338;2022-10-31T12:20:30;41.08;;;23.48;;
70535;SDS011;58089;48.752;11.338;2022-10-31T12:25:50;41.23;;;23.23;;
70535;SDS011;58089;48.752;11.338;2022-10-31T12:36:27;49.63;;;24.92;;
70535;SDS011;58089;48.752;11.338;2022-10-31T12:41:51;54.47;;;26.65;;
70535;SDS011;58089;48.752;11.338;2022-10-31T12:47:34;55.47;;;27.60;;
70535;SDS011;58089;48.752;11.338;2022-10-31T12:53:10;47.90;;;25.57;;
70535;SDS011;58089;48.752;11.338;2022-10-31T12:58:22;54.38;;;27.10;;
70535;SDS011;58089;48.752;11.338;2022-10-31T13:01:02;49.67;;;27.13;;
70535;SDS011;58089;48.752;11.338;2022-10-31T13:03:42;58.00;;;29.30;;
70535;SDS011;58089;48.752;11.338;2022-10-31T13:06:12;54.73;;;28.53;;
70535;SDS011;58089;48.752;11.338;2022-10-31T13:08:44;55.75;;;28.80;;
70535;SDS011;58089;48.752;11.338;2022-10-31T13:11:32;56.78;;;29.08;;
70535;SDS011;58089;48.752;11.338;2022-10-31T13:14:11;48.63;;;26.70;;
70535;SDS011;58089;48.752;11.338;2022-10-31T13:16:54;51.40;;;28.08;;
70535;SDS011;58089;48.752;11.338;2022-10-31T13:19:25;55.60;;;28.57;;
70535;SDS011;58089;48.752;11.338;2022-10-31T13:24:59;55.50;;;28.95;;
70535;SDS011;58089;48.752;11.338;2022-10-31T13:30:24;60.42;;;30.88;;
70535;SDS011;58089;48.752;11.338;2022-10-31T13:33:13;65.30;;;34.20;;
70535;SDS011;58089;48.752;11.338;2022-10-31T13:38:31;65.68;;;32.25;;
70535;SDS011;58089;48.752;11.338;2022-10-31T13:41:02;66.55;;;31.02;;
70535;SDS011;58089;48.752;11.338;2022-10-31T13:43:59;59.97;;;33.03;;
70535;SDS011;58089;48.752;11.338;2022-10-31T13:46:34;66.60;;;33.70;;
70535;SDS011;58089;48.752;11.338;2022-10-31T13:49:01;64.82;;;31.88;;
70535;SDS011;58089;48.752;11.338;2022-10-31T13:51:27;64.87;;;32.57;;
70535;SDS011;58089;48.752;11.338;2022-10-31T13:56:23;67.70;;;33.23;;
70535;SDS011;58089;48.752;11.338;2022-10-31T14:01:32;66.28;;;33.30;;
70535;SDS011;58089;48.752;11.338;2022-10-31T14:04:12;77.47;;;35.90;;
70535;SDS011;58089;48.752;11.338;2022-10-31T14:06:41;66.73;;;33.33;;
70535;SDS011;58089;48.752;11.338;2022-10-31T14:12:26;66.20;;;32.55;;
70535;SDS011;58089;48.752;11.338;2022-10-31T14:15:03;62.60;;;32.63;;
70535;SDS011;58089;48.752;11.338;2022-10-31T14:17:33;63.45;;;30.10;;
70535;SDS011;58089;48.752;11.338;2022-10-31T14:22:34;62.10;;;30.73;;
70535;SDS011;58089;48.752;11.338;2022-10-31T14:25:02;63.15;;;30.90;;
70535;SDS011;58089;48.752;11.338;2022-10-31T14:27:47;72.65;;;32.83;;
70535;SDS011;58089;48.752;11.338;2022-10-31T14:30:14;58.90;;;30.17;;
70535;SDS011;58089;48.752;11.338;2022-10-31T14:32:40;62.35;;;31.40;;
70535;SDS011;58089;48.752;11.338;2022-10-31T14:35:09;71.55;;;32.28;;
70535;SDS011;58089;48.752;11.338;2022-10-31T14:37:49;68.97;;;33.97;;
70535;SDS011;58089;48.752;11.338;2022-10-31T14:43:31;68.32;;;31.67;;
70535;SDS011;58089;48.752;11.338;2022-10-31T14:51:08;67.25;;;31.55;;
70535;SDS011;58089;48.752;11.338;2022-10-31T14:53:43;64.70;;;31.27;;
70535;SDS011;58089;48.752;11.338;2022-10-31T14:56:11;57.15;;;28.77;;
70535;SDS011;58089;48.752;11.338;2022-10-31T14:58:38;69.60;;;32.17;;
70535;SDS011;58089;48.752;11.338;2022-10-31T15:01:05;59.77;;;30.57;;
70535;SDS011;58089;48.752;11.338;2022-10-31T15:03:38;58.60;;;28.90;;
70535;SDS011;58089;48.752;11.338;2022-10-31T15:06:11;64.63;;;31.65;;
70535;SDS011;58089;48.752;11.338;2022-10-31T15:08:39;59.53;;;28.83;;
70535;SDS011;58089;48.752;11.338;2022-10-31T15:11:13;57.85;;;28.58;;
70535;SDS011;58089;48.752;11.338;2022-10-31T15:18:48;54.07;;;28.80;;
70535;SDS011;58089;48.752;11.338;2022-10-31T15:21:16;60.30;;;30.58;;
70535;SDS011;58089;48.752;11.338;2022-10-31T15:23:42;63.90;;;30.80;;
70535;SDS011;58089;48.752;11.338;2022-10-31T15:26:11;61.33;;;29.03;;
70535;SDS011;58089;48.752;11.338;2022-10-31T15:28:41;66.67;;;29.60;;
70535;SDS011;58089;48.752;11.338;2022-10-31T15:31:12;62.30;;;29.97;;
70535;SDS011;58089;48.752;11.338;2022-10-31T15:33:40;63.30;;;30.58;;
70535;SDS011;58089;48.752;11.338;2022-10-31T15:36:17;82.95;;;31.85;;
70535;SDS011;58089;48.752;11.338;2022-10-31T15:38:46;78.13;;;28.27;;
70535;SDS011;58089;48.752;11.338;2022-10-31T15:44:15;93.27;;;28.73;;
70535;SDS011;58089;48.752;11.338;2022-10-31T15:46:51;97.47;;;28.92;;
70535;SDS011;58089;48.752;11.338;2022-10-31T15:49:36;78.00;;;25.23;;
70535;SDS011;58089;48.752;11.338;2022-10-31T15:52:05;64.88;;;24.35;;
70535;SDS011;58089;48.752;11.338;2022-10-31T15:54:33;61.83;;;24.48;;
70535;SDS011;58089;48.752;11.338;2022-10-31T15:56:58;47.97;;;23.10;;
70535;SDS011;58089;48.752;11.338;2022-10-31T15:59:25;50.17;;;26.30;;
70535;SDS011;58089;48.752;11.338;2022-10-31T16:01:58;64.60;;;25.67;;
70535;SDS011;58089;48.752;11.338;2022-10-31T16:04:25;48.90;;;23.35;;
70535;SDS011;58089;48.752;11.338;2022-10-31T16:07:02;70.43;;;26.33;;
70535;SDS011;58089;48.752;11.338;2022-10-31T16:12:21;97.35;;;25.13;;
70535;SDS011;58089;48.752;11.338;2022-10-31T16:14:47;100.53;;;23.65;;
70535;SDS011;58089;48.752;11.338;2022-10-31T16:17:14;57.37;;;21.17;;
70535;SDS011;58089;48.752;11.338;2022-10-31T16:19:48;103.95;;;23.88;;
70535;SDS011;58089;48.752;11.338;2022-10-31T16:22:36;61.47;;;21.73;;
70535;SDS011;58089;48.752;11.338;2022-10-31T16:25:16;77.60;;;22.90;;
70535;SDS011;58089;48.752;11.338;2022-10-31T16:27:48;76.97;;;22.55;;
70535;SDS011;58089;48.752;11.338;2022-10-31T16:36:00;60.03;;;22.08;;
70535;SDS011;58089;48.752;11.338;2022-10-31T16:38:27;99.95;;;21.90;;
70535;SDS011;58089;48.752;11.338;2022-10-31T16:40:52;120.90;;;23.50;;
70535;SDS011;58089;48.752;11.338;2022-10-31T16:43:18;80.67;;;20.70;;
70535;SDS011;58089;48.752;11.338;2022-10-31T16:45:45;71.07;;;21.70;;
70535;SDS011;58089;48.752;11.338;2022-10-31T16:48:12;53.10;;;20.88;;